createdAt,value
2018-08-25T00:00:18.120Z,97672.37
2018-08-25T00:02:46.280Z,97670.31
2018-08-25T00:05:14.433Z,97684.80
2018-08-25T00:07:42.709Z,97679.69
2018-08-25T00:10:10.937Z,97677.73
2018-08-25T00:12:39.147Z,97675.11
2018-08-25T00:15:07.593Z,97671.38
2018-08-25T00:17:35.781Z,97669.37
2018-08-25T00:20:03.974Z,97670.55
2018-08-25T00:22:32.900Z,97664.64
2018-08-25T00:25:01.052Z,97659.28
2018-08-25T00:27:29.241Z,97658.63
2018-08-25T00:29:57.712Z,97663.91
2018-08-25T00:32:25.882Z,97667.83
2018-08-25T00:34:54.054Z,97666.05
2018-08-25T00:37:22.250Z,97665.65
2018-08-25T00:39:50.405Z,97662.92
2018-08-25T00:42:18.594Z,97664.62
2018-08-25T00:44:46.768Z,97662.29
2018-08-25T00:47:15.256Z,97653.67
2018-08-25T00:49:43.428Z,97668.90
2018-08-25T00:52:11.597Z,97665.25
2018-08-25T00:54:40.128Z,97670.77
2018-08-25T00:57:08.304Z,97671.13
2018-08-25T00:59:36.711Z,97669.25
2018-08-25T01:02:04.956Z,97678.96
2018-08-25T01:04:33.138Z,97670.95
2018-08-25T01:07:01.357Z,97670.36
2018-08-25T01:09:29.631Z,97663.58
2018-08-25T01:11:57.819Z,97662.86
2018-08-25T01:14:26.076Z,97669.97
2018-08-25T01:16:54.239Z,97671.05
2018-08-25T01:19:22.386Z,97674.19
2018-08-25T01:21:50.575Z,97670.59
2018-08-25T01:24:18.727Z,97668.72
2018-08-25T01:26:46.897Z,97652.08
2018-08-25T01:29:15.363Z,97654.16
2018-08-25T01:31:43.534Z,97655.68
2018-08-25T01:34:11.708Z,97651.95
2018-08-25T01:36:39.872Z,97663.70
2018-08-25T01:39:09.044Z,97659.55
2018-08-25T01:41:37.420Z,97658.16
2018-08-25T01:44:12.299Z,97649.95
2018-08-25T01:46:40.456Z,97646.71
2018-08-25T01:49:08.661Z,97651.00
2018-08-25T01:51:36.834Z,97652.45
2018-08-25T01:54:05.356Z,97646.59
2018-08-25T01:56:33.491Z,97658.35
2018-08-25T01:59:01.689Z,97663.13
2018-08-25T02:01:29.849Z,97661.50
2018-08-25T02:03:58.017Z,97658.32
2018-08-25T02:06:26.177Z,97661.27
2018-08-25T02:08:54.352Z,97660.06
2018-08-25T02:11:22.506Z,97658.46
2018-08-25T02:13:50.677Z,97655.13
2018-08-25T02:16:18.833Z,97650.55
2018-08-25T02:18:46.989Z,97656.17
2018-08-25T02:21:15.191Z,97660.72
2018-08-25T02:23:43.716Z,97648.83
2018-08-25T02:26:11.861Z,97650.48
2018-08-25T02:28:40.027Z,97640.65
2018-08-25T02:31:08.229Z,97646.33
2018-08-25T02:33:36.395Z,97649.48
2018-08-25T02:36:04.585Z,97647.28
2018-08-25T02:38:32.754Z,97632.62
2018-08-25T02:41:00.916Z,97620.53
2018-08-25T02:43:29.068Z,97627.85
2018-08-25T02:45:57.248Z,97637.12
2018-08-25T02:48:25.400Z,97636.44
2018-08-25T02:50:53.596Z,97631.60
2018-08-25T02:53:21.752Z,97643.50
2018-08-25T02:55:50.116Z,97645.75
2018-08-25T02:58:18.420Z,97659.88
2018-08-25T03:00:46.582Z,97657.72
2018-08-25T03:03:14.739Z,97670.14
2018-08-25T03:05:42.927Z,97675.00
2018-08-25T03:08:11.408Z,97682.84
2018-08-25T03:10:39.604Z,97676.60
2018-08-25T03:13:07.963Z,97679.84
2018-08-25T03:15:36.195Z,97677.55
2018-08-25T03:18:04.408Z,97681.03
2018-08-25T03:20:32.692Z,97682.82
2018-08-25T03:23:00.861Z,97681.03
2018-08-25T03:25:29.032Z,97685.09
2018-08-25T03:27:57.865Z,97689.62
2018-08-25T03:30:26.021Z,97684.56
2018-08-25T03:32:54.202Z,97684.56
2018-08-25T03:35:22.395Z,97681.61
2018-08-25T03:37:50.556Z,97680.41
2018-08-25T03:40:18.721Z,97667.52
2018-08-25T03:42:46.941Z,97672.03
2018-08-25T03:45:15.143Z,97660.43
2018-08-25T03:47:43.304Z,97659.94
2018-08-25T03:50:11.477Z,97668.31
2018-08-25T03:52:40.469Z,97672.83
2018-08-25T03:55:08.639Z,97667.23
2018-08-25T03:57:36.803Z,97677.61
2018-08-25T04:00:05.724Z,97669.63
2018-08-25T04:02:33.882Z,97675.27
2018-08-25T04:05:02.292Z,97678.00
2018-08-25T04:07:30.449Z,97678.50
2018-08-25T04:09:58.632Z,97677.25
2018-08-25T04:12:26.846Z,97680.03
2018-08-25T04:14:55.125Z,97681.72
2018-08-25T04:17:23.256Z,97679.84
2018-08-25T04:19:51.448Z,97671.31
2018-08-25T04:22:19.715Z,97668.95
2018-08-25T04:24:47.817Z,97665.01
2018-08-25T04:27:15.981Z,97667.70
2018-08-25T04:29:44.145Z,97675.92
2018-08-25T04:32:12.317Z,97673.56
2018-08-25T04:34:40.481Z,97674.66
2018-08-25T04:37:08.662Z,97674.28
2018-08-25T04:39:37.125Z,97662.37
2018-08-25T04:42:05.419Z,97667.27
2018-08-25T04:44:33.571Z,97674.19
2018-08-25T04:47:02.209Z,97674.63
2018-08-25T04:49:30.377Z,97672.72
2018-08-25T04:51:58.549Z,97673.91
2018-08-25T04:54:26.712Z,97667.42
2018-08-25T04:56:54.922Z,97667.20
2018-08-25T04:59:23.085Z,97671.60
2018-08-25T05:01:51.295Z,97673.69
2018-08-25T05:04:19.716Z,97677.98
2018-08-25T05:06:47.902Z,97673.84
2018-08-25T05:09:16.331Z,97673.70
2018-08-25T05:11:44.834Z,97682.71
2018-08-25T05:14:13.243Z,97685.01
2018-08-25T05:16:41.412Z,97682.73
2018-08-25T05:19:09.602Z,97680.39
2018-08-25T05:21:37.764Z,97681.73
2018-08-25T05:24:05.964Z,97677.63
2018-08-25T05:26:34.395Z,97682.98
2018-08-25T05:29:02.554Z,97679.82
2018-08-25T05:31:30.712Z,97685.66
2018-08-25T05:33:59.225Z,97685.73
2018-08-25T05:36:27.705Z,97691.70
2018-08-25T05:38:55.857Z,97696.09
2018-08-25T05:41:24.016Z,97700.34
2018-08-25T05:43:52.165Z,97690.61
2018-08-25T05:46:20.586Z,97691.61
2018-08-25T05:48:48.761Z,97690.02
2018-08-25T05:51:16.931Z,97683.00
2018-08-25T05:53:45.093Z,97684.04
2018-08-25T05:56:13.545Z,97679.00
2018-08-25T05:58:41.705Z,97681.16
2018-08-25T06:01:09.978Z,97683.39
2018-08-25T06:03:38.777Z,97680.20
2018-08-25T06:06:06.957Z,97679.17
2018-08-25T06:08:35.193Z,97685.00
2018-08-25T06:11:03.373Z,97690.08
2018-08-25T06:13:31.638Z,97689.28
2018-08-25T06:15:59.704Z,97690.89
2018-08-25T06:18:27.879Z,97695.89
2018-08-25T06:20:56.041Z,97703.41
2018-08-25T06:23:24.198Z,97705.77
2018-08-25T06:25:52.658Z,97704.13
2018-08-25T06:28:20.814Z,97702.65
2018-08-25T06:30:48.970Z,97707.02
2018-08-25T06:33:17.188Z,97705.16
2018-08-25T06:35:45.332Z,97707.34
2018-08-25T06:38:13.767Z,97701.75
2018-08-25T06:40:41.930Z,97704.08
2018-08-25T06:43:10.217Z,97710.36
2018-08-25T06:45:38.365Z,97709.57
2018-08-25T06:48:06.543Z,97704.48
2018-08-25T06:50:34.748Z,97699.39
2018-08-25T06:53:02.899Z,97702.06
2018-08-25T06:55:31.075Z,97701.54
2018-08-25T06:57:59.529Z,97703.44
2018-08-25T07:00:27.960Z,97706.56
2018-08-25T07:02:56.133Z,97701.14
2018-08-25T07:05:24.597Z,97707.05
2018-08-25T07:07:52.780Z,97713.69
2018-08-25T07:10:20.958Z,97714.23
2018-08-25T07:12:49.210Z,97706.80
2018-08-25T07:15:17.396Z,97718.16
2018-08-25T07:17:45.568Z,97710.22
2018-08-25T07:20:13.728Z,97706.65
2018-08-25T07:22:42.320Z,97710.79
2018-08-25T07:25:10.496Z,97705.45
2018-08-25T07:27:38.914Z,97713.36
2018-08-25T07:30:07.066Z,97714.29
2018-08-25T07:32:35.238Z,97711.66
2018-08-25T07:35:03.442Z,97721.50
2018-08-25T07:37:31.625Z,97723.31
2018-08-25T07:40:00.007Z,97716.81
2018-08-25T07:42:28.198Z,97714.55
2018-08-25T07:44:56.394Z,97712.95
2018-08-25T07:47:24.890Z,97722.21
2018-08-25T07:49:53.165Z,97710.55
2018-08-25T07:52:21.345Z,97704.73
2018-08-25T07:54:49.569Z,97708.58
2018-08-25T07:57:17.734Z,97705.85
2018-08-25T07:59:46.130Z,97701.69
2018-08-25T08:02:14.289Z,97700.41
2018-08-25T08:04:43.021Z,97697.28
2018-08-25T08:07:11.249Z,97692.10
2018-08-25T08:09:39.574Z,97690.56
2018-08-25T08:12:08.092Z,97690.38
2018-08-25T08:14:36.251Z,97686.42
2018-08-25T08:17:04.892Z,97686.59
2018-08-25T08:19:33.053Z,97685.87
2018-08-25T08:22:01.242Z,97681.10
2018-08-25T08:24:29.421Z,97682.97
2018-08-25T08:26:57.600Z,97681.16
2018-08-25T08:29:25.764Z,97670.61
2018-08-25T08:31:53.950Z,97676.75
2018-08-25T08:34:22.118Z,97673.23
2018-08-25T08:36:50.342Z,97669.00
2018-08-25T08:39:18.519Z,97674.38
2018-08-25T08:41:46.673Z,97673.04
2018-08-25T08:44:14.860Z,97679.37
2018-08-25T08:46:43.041Z,97675.02
2018-08-25T08:49:11.201Z,97667.05
2018-08-25T08:51:39.369Z,97679.19
2018-08-25T08:54:07.545Z,97682.82
2018-08-25T08:56:35.705Z,97684.93
2018-08-25T08:59:03.862Z,97684.48
2018-08-25T09:01:33.073Z,97693.69
2018-08-25T09:04:01.233Z,97693.95
2018-08-25T09:06:29.389Z,97699.09
2018-08-25T09:08:57.566Z,97692.75
2018-08-25T09:11:25.772Z,97695.88
2018-08-25T09:13:53.897Z,97699.67
2018-08-25T09:16:22.117Z,97691.19
2018-08-25T09:18:50.486Z,97690.53
2018-08-25T09:21:19.649Z,97693.97
2018-08-25T09:23:47.849Z,97680.51
2018-08-25T09:26:16.021Z,97684.83
2018-08-25T09:28:44.182Z,97687.85
2018-08-25T09:31:12.352Z,97700.41
2018-08-25T09:33:40.513Z,97699.42
2018-08-25T09:36:08.681Z,97693.38
2018-08-25T09:38:36.833Z,97695.58
2018-08-25T09:41:05.022Z,97700.66
2018-08-25T09:43:33.178Z,97706.75
2018-08-25T09:46:01.363Z,97693.70
2018-08-25T09:48:29.534Z,97696.05
2018-08-25T09:50:57.996Z,97701.95
2018-08-25T09:53:26.184Z,97701.77
2018-08-25T09:55:54.682Z,97698.22
2018-08-25T09:58:22.869Z,97704.77
2018-08-25T10:00:56.290Z,97691.30
2018-08-25T10:03:24.728Z,97684.37
2018-08-25T10:05:53.201Z,97687.64
2018-08-25T10:08:21.480Z,97682.50
2018-08-25T10:10:49.640Z,97673.73
2018-08-25T10:13:17.861Z,97678.98
2018-08-25T10:15:46.327Z,97684.80
2018-08-25T10:18:14.490Z,97686.30
2018-08-25T10:20:43.069Z,97685.20
2018-08-25T10:23:11.520Z,97683.52
2018-08-25T10:25:39.669Z,97679.99
2018-08-25T10:28:07.859Z,97680.22
2018-08-25T10:30:36.068Z,97673.63
2018-08-25T10:33:04.249Z,97677.25
2018-08-25T10:35:33.003Z,97672.77
2018-08-25T10:38:01.145Z,97680.39
2018-08-25T10:40:29.612Z,97676.92
2018-08-25T10:42:57.826Z,97675.80
2018-08-25T10:45:26.076Z,97671.57
2018-08-25T10:47:54.233Z,97666.98
2018-08-25T10:50:22.372Z,97664.28
2018-08-25T10:52:50.534Z,97670.56
2018-08-25T10:55:19.042Z,97672.49
2018-08-25T10:57:47.194Z,97673.52
2018-08-25T11:00:15.440Z,97678.66
2018-08-25T11:02:43.535Z,97671.09
2018-08-25T11:05:11.707Z,97663.94
2018-08-25T11:07:39.997Z,97656.48
2018-08-25T11:10:08.158Z,97661.81
2018-08-25T11:12:36.317Z,97658.39
2018-08-25T11:15:04.711Z,97651.98
2018-08-25T11:17:32.897Z,97648.52
2018-08-25T11:20:01.088Z,97657.44
2018-08-25T11:22:29.375Z,97654.44
2018-08-25T11:24:57.625Z,97655.58
2018-08-25T11:27:25.896Z,97654.53
2018-08-25T11:29:54.499Z,97655.17
2018-08-25T11:32:22.672Z,97651.78
2018-08-25T11:34:51.024Z,97659.00
2018-08-25T11:37:19.329Z,97659.84
2018-08-25T11:39:47.436Z,97661.47
2018-08-25T11:42:15.698Z,97652.47
2018-08-25T11:44:44.298Z,97651.52
2018-08-25T11:47:15.896Z,97646.97
2018-08-25T11:49:44.979Z,97644.23
2018-08-25T11:52:13.147Z,97646.98
2018-08-25T11:54:41.337Z,97646.66
2018-08-25T11:57:09.535Z,97647.94
2018-08-25T11:59:37.843Z,97650.67
2018-08-25T12:02:06.120Z,97647.12
2018-08-25T12:04:34.239Z,97641.84
2018-08-25T12:07:02.517Z,97640.13
2018-08-25T12:09:30.780Z,97634.64
2018-08-25T12:11:58.932Z,97638.70
2018-08-25T12:14:27.089Z,97636.39
2018-08-25T12:16:55.293Z,97637.17
2018-08-25T12:19:24.311Z,97633.01
2018-08-25T12:21:52.487Z,97637.48
2018-08-25T12:24:20.653Z,97637.55
2018-08-25T12:26:49.233Z,97641.53
2018-08-25T12:29:17.506Z,97648.10
2018-08-25T12:31:46.493Z,97648.76
2018-08-25T12:34:14.725Z,97651.09
2018-08-25T12:36:43.219Z,97638.44
2018-08-25T12:39:12.027Z,97641.47
2018-08-25T12:41:40.433Z,97648.52
2018-08-25T12:44:08.635Z,97646.88
2018-08-25T12:46:36.803Z,97641.44
2018-08-25T12:49:05.087Z,97640.66
2018-08-25T12:51:33.299Z,97651.73
2018-08-25T12:54:01.428Z,97651.42
2018-08-25T12:56:29.652Z,97652.31
2018-08-25T12:58:57.814Z,97654.19
2018-08-25T13:01:26.082Z,97675.38
2018-08-25T13:03:54.338Z,97690.88
2018-08-25T13:06:22.815Z,97707.61
2018-08-25T13:08:51.034Z,97709.84
2018-08-25T13:11:19.236Z,97690.89
2018-08-25T13:13:47.427Z,97674.78
2018-08-25T13:16:15.577Z,97673.12
2018-08-25T13:18:44.619Z,97670.10
2018-08-25T13:21:12.754Z,97683.64
2018-08-25T13:23:41.229Z,97680.58
2018-08-25T13:26:09.453Z,97681.03
2018-08-25T13:28:37.673Z,97669.77
2018-08-25T13:31:06.089Z,97657.35
2018-08-25T13:33:34.109Z,97659.48
2018-08-25T13:36:02.297Z,97649.69
2018-08-25T13:38:30.473Z,97649.92
2018-08-25T13:40:58.665Z,97648.55
2018-08-25T13:43:26.877Z,97648.68
2018-08-25T13:45:55.185Z,97652.91
2018-08-25T13:48:23.363Z,97651.53
2018-08-25T13:50:51.545Z,97650.91
2018-08-25T13:53:19.725Z,97636.95
2018-08-25T13:55:48.245Z,97631.99
2018-08-25T13:58:16.804Z,97633.10
2018-08-25T14:00:44.945Z,97633.02
2018-08-25T14:03:13.179Z,97631.05
2018-08-25T14:05:41.335Z,97635.59
2018-08-25T14:08:09.565Z,97640.08
2018-08-25T14:10:37.680Z,97641.64
2018-08-25T14:13:06.184Z,97633.44
2018-08-25T14:15:34.320Z,97628.63
2018-08-25T14:18:02.492Z,97628.20
2018-08-25T14:20:30.712Z,97624.63
2018-08-25T14:22:59.360Z,97623.93
2018-08-25T14:25:27.672Z,97619.09
2018-08-25T14:27:55.814Z,97629.26
2018-08-25T14:30:24.059Z,97620.63
2018-08-25T14:32:52.250Z,97629.30
2018-08-25T14:35:20.430Z,97630.84
2018-08-25T14:37:48.650Z,97622.63
2018-08-25T14:40:16.878Z,97629.89
2018-08-25T14:42:45.101Z,97635.33
2018-08-25T14:45:13.313Z,97636.20
2018-08-25T14:47:41.666Z,97634.30
2018-08-25T14:50:09.837Z,97640.39
2018-08-25T14:52:38.031Z,97635.69
2018-08-25T14:55:06.281Z,97634.84
2018-08-25T14:57:34.569Z,97647.53
2018-08-25T15:00:02.801Z,97634.23
2018-08-25T15:02:30.992Z,97639.25
2018-08-25T15:04:59.149Z,97637.95
2018-08-25T15:07:27.369Z,97641.34
2018-08-25T15:09:55.568Z,97641.83
2018-08-25T15:12:23.864Z,97641.80
2018-08-25T15:14:52.020Z,97642.48
2018-08-25T15:17:20.224Z,97644.77
2018-08-25T15:19:48.726Z,97640.61
2018-08-25T15:22:16.904Z,97639.95
2018-08-25T15:24:45.370Z,97647.66
2018-08-25T15:27:13.674Z,97645.00
2018-08-25T15:29:41.778Z,97645.87
2018-08-25T15:32:09.958Z,97654.09
2018-08-25T15:34:38.218Z,97644.44
2018-08-25T15:37:06.430Z,97655.23
2018-08-25T15:39:34.653Z,97652.56
2018-08-25T15:42:02.966Z,97642.23
2018-08-25T15:44:31.230Z,97650.83
2018-08-25T15:46:59.445Z,97645.99
2018-08-25T15:49:27.897Z,97647.78
2018-08-25T15:51:56.269Z,97648.05
2018-08-25T15:54:24.333Z,97648.94
2018-08-25T15:56:52.537Z,97652.18
2018-08-25T15:59:20.727Z,97649.23
2018-08-25T16:01:48.950Z,97657.39
2018-08-25T16:04:17.698Z,97655.89
2018-08-25T16:06:46.507Z,97660.64
2018-08-25T16:09:15.636Z,97660.03
2018-08-25T16:11:44.013Z,97653.95
2018-08-25T16:14:12.490Z,97658.66
2018-08-25T16:16:40.752Z,97666.52
2018-08-25T16:19:08.957Z,97665.34
2018-08-25T16:21:37.416Z,97665.54
2018-08-25T16:24:05.663Z,97662.00
2018-08-25T16:26:33.908Z,97660.05
2018-08-25T16:29:02.106Z,97657.68
2018-08-25T16:31:30.341Z,97661.81
2018-08-25T16:33:58.556Z,97659.21
2018-08-25T16:36:26.814Z,97664.91
2018-08-25T16:38:55.076Z,97667.05
2018-08-25T16:41:23.334Z,97656.86
2018-08-25T16:43:51.590Z,97654.69
2018-08-25T16:46:19.863Z,97650.97
2018-08-25T16:48:48.028Z,97659.73
2018-08-25T16:51:16.733Z,97668.39
2018-08-25T16:53:44.983Z,97672.75
2018-08-25T16:56:13.393Z,97675.44
2018-08-25T16:58:41.601Z,97675.66
2018-08-25T17:01:09.899Z,97681.11
2018-08-25T17:03:38.113Z,97679.58
2018-08-25T17:06:06.309Z,97675.52
2018-08-25T17:08:34.633Z,97686.50
2018-08-25T17:11:02.897Z,97677.07
2018-08-25T17:13:31.115Z,97678.85
2018-08-25T17:15:59.377Z,97688.81
2018-08-25T17:18:27.611Z,97691.75
2018-08-25T17:20:55.829Z,97693.50
2018-08-25T17:23:24.699Z,97694.55
2018-08-25T17:25:52.916Z,97701.13
2018-08-25T17:28:21.064Z,97708.31
2018-08-25T17:30:49.278Z,97710.11
2018-08-25T17:33:17.475Z,97712.23
2018-08-25T17:35:45.636Z,97713.13
2018-08-25T17:38:13.847Z,97713.72
2018-08-25T17:40:42.594Z,97718.30
2018-08-25T17:43:11.970Z,97716.84
2018-08-25T17:45:40.242Z,97723.33
2018-08-25T17:48:08.525Z,97729.50
2018-08-25T17:50:36.742Z,97731.66
2018-08-25T17:53:05.020Z,97731.84
2018-08-25T17:55:33.300Z,97735.00
2018-08-25T17:58:01.474Z,97736.45
2018-08-25T18:00:29.666Z,97752.26
2018-08-25T18:02:57.879Z,97758.31
2018-08-25T18:05:26.073Z,97752.36
2018-08-25T18:07:54.266Z,97749.41
2018-08-25T18:10:22.453Z,97736.31
2018-08-25T18:12:50.637Z,97732.45
2018-08-25T18:15:18.841Z,97734.07
2018-08-25T18:17:47.011Z,97739.55
2018-08-25T18:20:15.253Z,97744.54
2018-08-25T18:22:43.585Z,97753.38
2018-08-25T18:25:11.757Z,97747.41
2018-08-25T18:27:40.037Z,97753.27
2018-08-25T18:30:08.502Z,97754.51
2018-08-25T18:32:36.806Z,97758.05
2018-08-25T18:35:05.073Z,97766.33
2018-08-25T18:37:33.314Z,97772.11
2018-08-25T18:40:01.594Z,97761.44
2018-08-25T18:42:29.754Z,97766.05
2018-08-25T18:44:57.966Z,97780.56
2018-08-25T18:47:26.488Z,97782.16
2018-08-25T18:49:54.734Z,97779.85
2018-08-25T18:52:22.978Z,97782.12
2018-08-25T18:54:51.249Z,97774.39
2018-08-25T18:57:19.327Z,97781.58
2018-08-25T18:59:47.555Z,97791.00
2018-08-25T19:02:15.943Z,97783.98
2018-08-25T19:04:44.064Z,97792.15
2018-08-25T19:07:12.357Z,97793.89
2018-08-25T19:09:40.509Z,97795.68
2018-08-25T19:12:08.825Z,97795.41
2018-08-25T19:14:37.022Z,97808.06
2018-08-25T19:17:05.339Z,97796.98
2018-08-25T19:19:33.601Z,97806.37
2018-08-25T19:22:01.842Z,97810.14
2018-08-25T19:24:30.083Z,97802.27
2018-08-25T19:26:58.509Z,97810.27
2018-08-25T19:29:27.848Z,97809.48
2018-08-25T19:31:56.051Z,97811.30
2018-08-25T19:34:24.228Z,97800.51
2018-08-25T19:36:52.507Z,97805.92
2018-08-25T19:39:20.689Z,97795.76
2018-08-25T19:41:48.877Z,97805.57
2018-08-25T19:44:17.081Z,97803.09
2018-08-25T19:46:45.241Z,97800.17
2018-08-25T19:49:13.440Z,97807.41
2018-08-25T19:51:42.620Z,97801.52
2018-08-25T19:54:10.868Z,97813.25
2018-08-25T19:56:39.102Z,97810.02
2018-08-25T19:59:07.314Z,97807.12
2018-08-25T20:01:35.536Z,97815.95
2018-08-25T20:04:03.714Z,97807.53
2018-08-25T20:06:31.894Z,97813.10
2018-08-25T20:09:00.056Z,97808.98
2018-08-25T20:11:28.254Z,97813.52
2018-08-25T20:13:56.421Z,97811.44
2018-08-25T20:16:24.565Z,97806.27
2018-08-25T20:18:52.717Z,97815.21
2018-08-25T20:21:20.949Z,97808.28
2018-08-25T20:23:49.112Z,97811.35
2018-08-25T20:26:17.304Z,97815.83
2018-08-25T20:28:45.505Z,97812.38
2018-08-25T20:31:13.681Z,97814.13
2018-08-25T20:33:42.175Z,97822.69
2018-08-25T20:36:10.379Z,97823.15
2018-08-25T20:38:38.560Z,97832.18
2018-08-25T20:41:06.762Z,97834.61
2018-08-25T20:43:35.053Z,97830.27
2018-08-25T20:46:03.287Z,97838.90
2018-08-25T20:48:31.391Z,97837.59
2018-08-25T20:50:59.589Z,97840.39
2018-08-25T20:53:28.100Z,97839.39
2018-08-25T20:55:56.745Z,97843.87
2018-08-25T20:58:24.942Z,97843.65
2018-08-25T21:00:53.203Z,97844.16
2018-08-25T21:03:21.330Z,97849.66
2018-08-25T21:05:49.540Z,97846.66
2018-08-25T21:08:17.714Z,97851.06
2018-08-25T21:10:45.878Z,97850.02
2018-08-25T21:13:14.060Z,97848.46
2018-08-25T21:15:42.235Z,97847.44
2018-08-25T21:18:10.444Z,97853.41
2018-08-25T21:20:38.630Z,97854.48
2018-08-25T21:23:06.794Z,97847.61
2018-08-25T21:25:35.230Z,97855.98
2018-08-25T21:28:03.426Z,97854.78
2018-08-25T21:30:31.589Z,97863.52
2018-08-25T21:33:00.055Z,97857.97
2018-08-25T21:35:28.246Z,97856.78
2018-08-25T21:37:56.430Z,97856.16
2018-08-25T21:40:24.581Z,97861.27
2018-08-25T21:42:53.064Z,97867.21
2018-08-25T21:45:21.218Z,97868.03
2018-08-25T21:47:49.401Z,97856.73
2018-08-25T21:50:17.920Z,97868.84
2018-08-25T21:52:46.100Z,97867.37
2018-08-25T21:55:14.476Z,97866.05
2018-08-25T21:57:42.884Z,97871.62
2018-08-25T22:00:11.136Z,97866.13
2018-08-25T22:02:39.440Z,97868.53
2018-08-25T22:05:07.884Z,97869.26
2018-08-25T22:07:36.138Z,97868.06
2018-08-25T22:10:04.544Z,97867.48
2018-08-25T22:12:32.778Z,97869.53
2018-08-25T22:15:00.942Z,97872.84
2018-08-25T22:17:29.476Z,97873.45
2018-08-25T22:19:57.914Z,97869.88
2018-08-25T22:22:26.092Z,97862.84
2018-08-25T22:24:54.509Z,97863.63
2018-08-25T22:27:22.694Z,97870.38
2018-08-25T22:29:50.879Z,97854.14
2018-08-25T22:32:19.133Z,97851.36
2018-08-25T22:34:47.337Z,97864.05
2018-08-25T22:37:15.551Z,97855.45
2018-08-25T22:39:43.690Z,97860.62
2018-08-25T22:42:11.856Z,97854.69
2018-08-25T22:44:40.071Z,97866.05
2018-08-25T22:47:08.277Z,97860.70
2018-08-25T22:49:36.465Z,97869.22
2018-08-25T22:52:04.661Z,97872.80
2018-08-25T22:54:33.105Z,97871.74
2018-08-25T22:57:01.285Z,97871.90
2018-08-25T22:59:29.564Z,97874.16
2018-08-25T23:01:57.781Z,97868.67
2018-08-25T23:04:25.988Z,97869.95
2018-08-25T23:06:54.461Z,97861.46
2018-08-25T23:09:22.622Z,97870.58
2018-08-25T23:11:50.883Z,97867.89
2018-08-25T23:14:19.086Z,97858.95
2018-08-25T23:16:47.276Z,97858.41
2018-08-25T23:19:15.440Z,97862.42
2018-08-25T23:21:43.590Z,97855.91
2018-08-25T23:24:11.794Z,97861.97
2018-08-25T23:26:39.985Z,97858.65
2018-08-25T23:29:08.136Z,97861.66
2018-08-25T23:31:36.305Z,97860.09
2018-08-25T23:34:04.506Z,97861.78
2018-08-25T23:36:32.854Z,97864.58
2018-08-25T23:39:01.059Z,97856.70
2018-08-25T23:41:29.294Z,97856.44
2018-08-25T23:43:57.475Z,97855.41
2018-08-25T23:46:25.784Z,97868.42
2018-08-25T23:48:53.951Z,97870.50
2018-08-25T23:51:22.117Z,97862.70
2018-08-25T23:53:50.305Z,97863.25
2018-08-25T23:56:18.518Z,97859.30
2018-08-25T23:58:46.737Z,97862.94
